sensor_id;sensor_type;location;lat;lon;timestamp;P1;durP1;ratioP1;P2;durP2;ratioP2
24153;SDS011;12312;53.362;-1.518;2023-03-20T00:02:43;10.95;;;4.85;;
24153;SDS011;12312;53.362;-1.518;2023-03-20T00:05:28;27.50;;;5.85;;
24153;SDS011;12312;53.362;-1.518;2023-03-20T00:08:14;16.23;;;5.47;;
24153;SDS011;12312;53.362;-1.518;2023-03-20T00:10:58;10.02;;;4.85;;
24153;SDS011;12312;53.362;-1.518;2023-03-20T00:13:42;13.18;;;5.45;;
24153;SDS011;12312;53.362;-1.518;2023-03-20T00:16:31;14.07;;;6.55;;
24153;SDS011;12312;53.362;-1.518;2023-03-20T00:19:19;9.65;;;5.07;;
24153;SDS011;12312;53.362;-1.518;2023-03-20T00:22:14;13.02;;;5.53;;
24153;SDS011;12312;53.362;-1.518;2023-03-20T00:24:59;9.88;;;5.90;;
24153;SDS011;12312;53.362;-1.518;2023-03-20T00:27:43;14.73;;;5.82;;
24153;SDS011;12312;53.362;-1.518;2023-03-20T00:30:28;14.23;;;6.70;;
24153;SDS011;12312;53.362;-1.518;2023-03-20T00:33:13;15.35;;;6.13;;
24153;SDS011;12312;53.362;-1.518;2023-03-20T00:35:57;11.13;;;5.60;;
24153;SDS011;12312;53.362;-1.518;2023-03-20T00:38:41;14.18;;;5.60;;
24153;SDS011;12312;53.362;-1.518;2023-03-20T00:44:25;15.27;;;5.47;;
24153;SDS011;12312;53.362;-1.518;2023-03-20T00:47:17;10.35;;;5.68;;
24153;SDS011;12312;53.362;-1.518;2023-03-20T00:50:14;11.02;;;5.80;;
24153;SDS011;12312;53.362;-1.518;2023-03-20T00:53:08;10.70;;;5.90;;
24153;SDS011;12312;53.362;-1.518;2023-03-20T00:55:53;12.35;;;5.93;;
24153;SDS011;12312;53.362;-1.518;2023-03-20T00:58:37;15.57;;;6.05;;
24153;SDS011;12312;53.362;-1.518;2023-03-20T01:01:21;9.13;;;5.57;;
24153;SDS011;12312;53.362;-1.518;2023-03-20T01:04:08;10.50;;;5.63;;
24153;SDS011;12312;53.362;-1.518;2023-03-20T01:06:55;11.80;;;5.45;;
24153;SDS011;12312;53.362;-1.518;2023-03-20T01:09:39;11.02;;;4.95;;
24153;SDS011;12312;53.362;-1.518;2023-03-20T01:12:24;10.20;;;4.50;;
24153;SDS011;12312;53.362;-1.518;2023-03-20T01:15:14;9.90;;;4.35;;
24153;SDS011;12312;53.362;-1.518;2023-03-20T01:18:01;7.40;;;4.00;;
24153;SDS011;12312;53.362;-1.518;2023-03-20T01:20:45;5.75;;;3.90;;
24153;SDS011;12312;53.362;-1.518;2023-03-20T01:23:29;11.15;;;4.32;;
24153;SDS011;12312;53.362;-1.518;2023-03-20T01:26:21;7.03;;;3.83;;
24153;SDS011;12312;53.362;-1.518;2023-03-20T01:32:04;4.65;;;3.45;;
24153;SDS011;12312;53.362;-1.518;2023-03-20T01:34:56;14.43;;;3.78;;
24153;SDS011;12312;53.362;-1.518;2023-03-20T01:37:41;5.70;;;3.10;;
24153;SDS011;12312;53.362;-1.518;2023-03-20T01:43:22;7.30;;;2.95;;
24153;SDS011;12312;53.362;-1.518;2023-03-20T01:52:04;5.32;;;2.72;;
24153;SDS011;12312;53.362;-1.518;2023-03-20T01:54:48;6.03;;;2.60;;
24153;SDS011;12312;53.362;-1.518;2023-03-20T01:57:33;4.65;;;2.53;;
24153;SDS011;12312;53.362;-1.518;2023-03-20T02:00:18;6.32;;;2.50;;
24153;SDS011;12312;53.362;-1.518;2023-03-20T02:03:03;5.38;;;2.50;;
24153;SDS011;12312;53.362;-1.518;2023-03-20T02:05:49;6.57;;;2.65;;
24153;SDS011;12312;53.362;-1.518;2023-03-20T02:08:36;9.90;;;3.40;;
24153;SDS011;12312;53.362;-1.518;2023-03-20T02:11:25;4.80;;;2.90;;
24153;SDS011;12312;53.362;-1.518;2023-03-20T02:14:09;3.22;;;2.53;;
24153;SDS011;12312;53.362;-1.518;2023-03-20T02:16:55;7.15;;;3.17;;
24153;SDS011;12312;53.362;-1.518;2023-03-20T02:19:47;6.57;;;3.58;;
24153;SDS011;12312;53.362;-1.518;2023-03-20T02:34:30;5.60;;;3.25;;
24153;SDS011;12312;53.362;-1.518;2023-03-20T02:40:36;7.18;;;3.65;;
24153;SDS011;12312;53.362;-1.518;2023-03-20T02:43:39;5.47;;;3.80;;
24153;SDS011;12312;53.362;-1.518;2023-03-20T02:46:35;5.97;;;3.97;;
24153;SDS011;12312;53.362;-1.518;2023-03-20T02:58:59;3.97;;;2.78;;
24153;SDS011;12312;53.362;-1.518;2023-03-20T03:01:53;5.05;;;3.20;;
24153;SDS011;12312;53.362;-1.518;2023-03-20T03:04:57;3.20;;;2.67;;
24153;SDS011;12312;53.362;-1.518;2023-03-20T03:07:44;3.30;;;2.28;;
24153;SDS011;12312;53.362;-1.518;2023-03-20T03:10:37;4.22;;;2.25;;
24153;SDS011;12312;53.362;-1.518;2023-03-20T03:13:28;3.58;;;1.73;;
24153;SDS011;12312;53.362;-1.518;2023-03-20T03:16:17;5.90;;;1.98;;
24153;SDS011;12312;53.362;-1.518;2023-03-20T03:19:09;3.47;;;1.60;;
24153;SDS011;12312;53.362;-1.518;2023-03-20T03:21:59;1.95;;;1.38;;
24153;SDS011;12312;53.362;-1.518;2023-03-20T03:24:44;2.70;;;1.40;;
24153;SDS011;12312;53.362;-1.518;2023-03-20T03:27:35;4.22;;;1.40;;
24153;SDS011;12312;53.362;-1.518;2023-03-20T03:30:26;2.75;;;1.50;;
24153;SDS011;12312;53.362;-1.518;2023-03-20T03:33:18;4.22;;;1.27;;
24153;SDS011;12312;53.362;-1.518;2023-03-20T03:42:00;3.15;;;1.20;;
24153;SDS011;12312;53.362;-1.518;2023-03-20T03:44:58;3.60;;;1.40;;
24153;SDS011;12312;53.362;-1.518;2023-03-20T03:50:40;3.75;;;1.48;;
24153;SDS011;12312;53.362;-1.518;2023-03-20T03:53:32;3.22;;;1.45;;
24153;SDS011;12312;53.362;-1.518;2023-03-20T03:56:20;6.43;;;1.75;;
24153;SDS011;12312;53.362;-1.518;2023-03-20T03:59:09;4.68;;;1.60;;
24153;SDS011;12312;53.362;-1.518;2023-03-20T04:01:59;4.35;;;1.92;;
24153;SDS011;12312;53.362;-1.518;2023-03-20T04:04:47;6.93;;;2.00;;
24153;SDS011;12312;53.362;-1.518;2023-03-20T04:07:34;6.15;;;2.13;;
24153;SDS011;12312;53.362;-1.518;2023-03-20T04:10:19;7.15;;;2.20;;
24153;SDS011;12312;53.362;-1.518;2023-03-20T04:13:03;4.63;;;2.20;;
24153;SDS011;12312;53.362;-1.518;2023-03-20T04:15:47;6.85;;;2.55;;
24153;SDS011;12312;53.362;-1.518;2023-03-20T04:18:31;7.72;;;2.40;;
24153;SDS011;12312;53.362;-1.518;2023-03-20T04:21:15;6.82;;;2.42;;
24153;SDS011;12312;53.362;-1.518;2023-03-20T04:24:00;5.95;;;2.60;;
24153;SDS011;12312;53.362;-1.518;2023-03-20T04:26:44;4.97;;;2.35;;
24153;SDS011;12312;53.362;-1.518;2023-03-20T04:29:28;5.63;;;2.30;;
24153;SDS011;12312;53.362;-1.518;2023-03-20T04:32:12;5.55;;;2.10;;
24153;SDS011;12312;53.362;-1.518;2023-03-20T04:34:56;6.28;;;2.10;;
24153;SDS011;12312;53.362;-1.518;2023-03-20T04:37:40;5.78;;;2.50;;
24153;SDS011;12312;53.362;-1.518;2023-03-20T04:40:24;6.15;;;2.47;;
24153;SDS011;12312;53.362;-1.518;2023-03-20T04:43:09;7.00;;;2.47;;
24153;SDS011;12312;53.362;-1.518;2023-03-20T04:45:53;4.05;;;2.70;;
24153;SDS011;12312;53.362;-1.518;2023-03-20T04:48:37;7.82;;;2.45;;
24153;SDS011;12312;53.362;-1.518;2023-03-20T04:51:21;7.53;;;2.97;;
24153;SDS011;12312;53.362;-1.518;2023-03-20T04:54:05;6.30;;;2.63;;
24153;SDS011;12312;53.362;-1.518;2023-03-20T04:56:49;5.43;;;2.80;;
24153;SDS011;12312;53.362;-1.518;2023-03-20T04:59:33;6.85;;;3.03;;
24153;SDS011;12312;53.362;-1.518;2023-03-20T05:02:17;8.25;;;3.05;;
24153;SDS011;12312;53.362;-1.518;2023-03-20T05:05:01;7.70;;;3.50;;
24153;SDS011;12312;53.362;-1.518;2023-03-20T05:07:46;6.13;;;3.58;;
24153;SDS011;12312;53.362;-1.518;2023-03-20T05:10:30;8.15;;;3.17;;
24153;SDS011;12312;53.362;-1.518;2023-03-20T05:13:14;10.05;;;3.20;;
24153;SDS011;12312;53.362;-1.518;2023-03-20T05:15:58;7.95;;;3.70;;
24153;SDS011;12312;53.362;-1.518;2023-03-20T05:18:43;8.90;;;3.50;;
24153;SDS011;12312;53.362;-1.518;2023-03-20T05:21:27;9.23;;;3.50;;
24153;SDS011;12312;53.362;-1.518;2023-03-20T05:24:11;6.13;;;3.50;;
24153;SDS011;12312;53.362;-1.518;2023-03-20T05:26:55;7.78;;;3.80;;
24153;SDS011;12312;53.362;-1.518;2023-03-20T05:29:39;12.45;;;4.68;;
24153;SDS011;12312;53.362;-1.518;2023-03-20T05:32:23;8.77;;;5.30;;
24153;SDS011;12312;53.362;-1.518;2023-03-20T05:35:08;11.90;;;4.68;;
24153;SDS011;12312;53.362;-1.518;2023-03-20T05:37:53;9.02;;;4.85;;
24153;SDS011;12312;53.362;-1.518;2023-03-20T05:40:37;10.80;;;5.38;;
24153;SDS011;12312;53.362;-1.518;2023-03-20T05:43:21;13.00;;;6.28;;
24153;SDS011;12312;53.362;-1.518;2023-03-20T05:46:05;7.97;;;5.05;;
24153;SDS011;12312;53.362;-1.518;2023-03-20T05:48:49;14.05;;;6.60;;
24153;SDS011;12312;53.362;-1.518;2023-03-20T05:51:34;12.35;;;5.63;;
24153;SDS011;12312;53.362;-1.518;2023-03-20T05:54:18;8.93;;;5.10;;
24153;SDS011;12312;53.362;-1.518;2023-03-20T05:57:02;10.25;;;5.90;;
24153;SDS011;12312;53.362;-1.518;2023-03-20T05:59:46;16.42;;;6.60;;
24153;SDS011;12312;53.362;-1.518;2023-03-20T06:02:30;15.02;;;7.40;;
24153;SDS011;12312;53.362;-1.518;2023-03-20T06:05:14;14.60;;;7.63;;
24153;SDS011;12312;53.362;-1.518;2023-03-20T06:07:58;12.52;;;7.78;;
24153;SDS011;12312;53.362;-1.518;2023-03-20T06:10:43;13.05;;;7.07;;
24153;SDS011;12312;53.362;-1.518;2023-03-20T06:13:27;14.07;;;7.45;;
24153;SDS011;12312;53.362;-1.518;2023-03-20T06:16:11;14.90;;;8.35;;
24153;SDS011;12312;53.362;-1.518;2023-03-20T06:18:55;14.55;;;8.20;;
24153;SDS011;12312;53.362;-1.518;2023-03-20T06:21:39;18.08;;;8.75;;
24153;SDS011;12312;53.362;-1.518;2023-03-20T06:24:23;20.00;;;9.18;;
24153;SDS011;12312;53.362;-1.518;2023-03-20T06:27:07;15.30;;;9.25;;
24153;SDS011;12312;53.362;-1.518;2023-03-20T06:29:52;14.18;;;8.98;;
24153;SDS011;12312;53.362;-1.518;2023-03-20T06:32:36;15.30;;;8.60;;
24153;SDS011;12312;53.362;-1.518;2023-03-20T06:35:20;13.65;;;9.15;;
24153;SDS011;12312;53.362;-1.518;2023-03-20T06:38:04;17.45;;;10.30;;
24153;SDS011;12312;53.362;-1.518;2023-03-20T06:40:47;11.15;;;8.32;;
24153;SDS011;12312;53.362;-1.518;2023-03-20T06:43:31;12.68;;;8.75;;
24153;SDS011;12312;53.362;-1.518;2023-03-20T06:46:15;15.40;;;9.00;;
24153;SDS011;12312;53.362;-1.518;2023-03-20T06:48:59;15.90;;;8.70;;
24153;SDS011;12312;53.362;-1.518;2023-03-20T06:51:44;15.32;;;8.75;;
24153;SDS011;12312;53.362;-1.518;2023-03-20T06:54:30;14.82;;;8.88;;
24153;SDS011;12312;53.362;-1.518;2023-03-20T06:57:14;14.63;;;9.40;;
24153;SDS011;12312;53.362;-1.518;2023-03-20T07:00:00;13.70;;;8.65;;
24153;SDS011;12312;53.362;-1.518;2023-03-20T07:02:44;14.02;;;8.27;;
24153;SDS011;12312;53.362;-1.518;2023-03-20T07:05:28;16.85;;;8.27;;
24153;SDS011;12312;53.362;-1.518;2023-03-20T07:08:12;13.70;;;8.43;;
24153;SDS011;12312;53.362;-1.518;2023-03-20T07:10:57;14.20;;;8.32;;
24153;SDS011;12312;53.362;-1.518;2023-03-20T07:13:42;14.18;;;9.32;;
24153;SDS011;12312;53.362;-1.518;2023-03-20T07:16:26;14.98;;;8.60;;
24153;SDS011;12312;53.362;-1.518;2023-03-20T07:19:10;14.18;;;8.63;;
24153;SDS011;12312;53.362;-1.518;2023-03-20T07:21:57;12.02;;;7.72;;
24153;SDS011;12312;53.362;-1.518;2023-03-20T07:24:45;12.07;;;7.65;;
24153;SDS011;12312;53.362;-1.518;2023-03-20T07:27:29;14.07;;;7.18;;
24153;SDS011;12312;53.362;-1.518;2023-03-20T07:30:13;12.80;;;7.78;;
24153;SDS011;12312;53.362;-1.518;2023-03-20T07:32:58;12.82;;;7.60;;
24153;SDS011;12312;53.362;-1.518;2023-03-20T07:35:42;17.67;;;8.45;;
24153;SDS011;12312;53.362;-1.518;2023-03-20T07:38:26;12.32;;;7.25;;
24153;SDS011;12312;53.362;-1.518;2023-03-20T07:41:10;13.32;;;8.02;;
24153;SDS011;12312;53.362;-1.518;2023-03-20T07:43:54;13.85;;;7.38;;
24153;SDS011;12312;53.362;-1.518;2023-03-20T07:46:38;12.00;;;6.88;;
24153;SDS011;12312;53.362;-1.518;2023-03-20T07:49:23;9.80;;;6.57;;
24153;SDS011;12312;53.362;-1.518;2023-03-20T07:52:07;11.48;;;6.93;;
24153;SDS011;12312;53.362;-1.518;2023-03-20T07:54:51;11.43;;;5.30;;
24153;SDS011;12312;53.362;-1.518;2023-03-20T07:57:35;7.20;;;4.80;;
24153;SDS011;12312;53.362;-1.518;2023-03-20T08:00:19;7.35;;;4.50;;
24153;SDS011;12312;53.362;-1.518;2023-03-20T08:03:03;5.93;;;4.05;;
24153;SDS011;12312;53.362;-1.518;2023-03-20T08:05:48;6.45;;;4.50;;
24153;SDS011;12312;53.362;-1.518;2023-03-20T08:08:32;7.13;;;4.50;;
24153;SDS011;12312;53.362;-1.518;2023-03-20T08:11:18;5.70;;;4.10;;
24153;SDS011;12312;53.362;-1.518;2023-03-20T08:14:02;7.57;;;3.85;;
24153;SDS011;12312;53.362;-1.518;2023-03-20T08:16:46;6.13;;;4.78;;
24153;SDS011;12312;53.362;-1.518;2023-03-20T08:19:30;6.15;;;4.38;;
24153;SDS011;12312;53.362;-1.518;2023-03-20T08:22:14;6.53;;;4.63;;
24153;SDS011;12312;53.362;-1.518;2023-03-20T08:24:58;9.40;;;5.05;;
24153;SDS011;12312;53.362;-1.518;2023-03-20T08:27:42;8.48;;;5.03;;
24153;SDS011;12312;53.362;-1.518;2023-03-20T08:30:25;7.95;;;4.70;;
24153;SDS011;12312;53.362;-1.518;2023-03-20T08:33:10;8.02;;;4.55;;
24153;SDS011;12312;53.362;-1.518;2023-03-20T08:35:55;7.60;;;5.18;;
24153;SDS011;12312;53.362;-1.518;2023-03-20T08:38:40;7.82;;;4.25;;
24153;SDS011;12312;53.362;-1.518;2023-03-20T08:41:25;6.97;;;4.78;;
24153;SDS011;12312;53.362;-1.518;2023-03-20T08:44:09;7.00;;;3.92;;
24153;SDS011;12312;53.362;-1.518;2023-03-20T08:46:54;6.25;;;3.88;;
24153;SDS011;12312;53.362;-1.518;2023-03-20T08:49:39;6.00;;;3.70;;
24153;SDS011;12312;53.362;-1.518;2023-03-20T08:52:23;5.05;;;4.35;;
24153;SDS011;12312;53.362;-1.518;2023-03-20T08:55:07;4.07;;;3.53;;
24153;SDS011;12312;53.362;-1.518;2023-03-20T08:57:52;4.28;;;2.90;;
24153;SDS011;12312;53.362;-1.518;2023-03-20T09:00:37;5.10;;;3.33;;
24153;SDS011;12312;53.362;-1.518;2023-03-20T09:03:21;4.93;;;4.00;;
24153;SDS011;12312;53.362;-1.518;2023-03-20T09:06:05;5.95;;;5.03;;
24153;SDS011;12312;53.362;-1.518;2023-03-20T09:08:52;7.32;;;5.47;;
24153;SDS011;12312;53.362;-1.518;2023-03-20T09:11:37;6.57;;;5.40;;
24153;SDS011;12312;53.362;-1.518;2023-03-20T09:14:22;7.45;;;5.82;;
24153;SDS011;12312;53.362;-1.518;2023-03-20T09:17:07;11.07;;;7.28;;
24153;SDS011;12312;53.362;-1.518;2023-03-20T09:19:51;12.43;;;8.43;;
24153;SDS011;12312;53.362;-1.518;2023-03-20T09:22:34;12.52;;;7.75;;
24153;SDS011;12312;53.362;-1.518;2023-03-20T09:25:18;8.20;;;5.90;;
24153;SDS011;12312;53.362;-1.518;2023-03-20T09:28:02;8.05;;;4.78;;
24153;SDS011;12312;53.362;-1.518;2023-03-20T09:30:47;7.32;;;4.85;;
24153;SDS011;12312;53.362;-1.518;2023-03-20T09:33:31;9.07;;;5.97;;
24153;SDS011;12312;53.362;-1.518;2023-03-20T09:36:15;8.02;;;4.65;;
24153;SDS011;12312;53.362;-1.518;2023-03-20T09:39:00;3.85;;;3.15;;
24153;SDS011;12312;53.362;-1.518;2023-03-20T09:41:47;5.55;;;3.42;;
24153;SDS011;12312;53.362;-1.518;2023-03-20T09:44:53;4.90;;;3.58;;
24153;SDS011;12312;53.362;-1.518;2023-03-20T09:53:58;4.72;;;3.28;;
24153;SDS011;12312;53.362;-1.518;2023-03-20T09:56:54;4.13;;;2.80;;
24153;SDS011;12312;53.362;-1.518;2023-03-20T09:59:40;4.07;;;2.80;;
24153;SDS011;12312;53.362;-1.518;2023-03-20T10:05:41;4.43;;;2.97;;
24153;SDS011;12312;53.362;-1.518;2023-03-20T10:08:34;4.13;;;2.25;;
24153;SDS011;12312;53.362;-1.518;2023-03-20T10:20:35;5.00;;;3.63;;
24153;SDS011;12312;53.362;-1.518;2023-03-20T10:27:21;7.90;;;5.40;;
24153;SDS011;12312;53.362;-1.518;2023-03-20T10:39:13;3.92;;;3.28;;
24153;SDS011;12312;53.362;-1.518;2023-03-20T10:42:01;5.22;;;2.20;;
24153;SDS011;12312;53.362;-1.518;2023-03-20T10:44:54;3.08;;;2.10;;
24153;SDS011;12312;53.362;-1.518;2023-03-20T10:47:42;2.25;;;2.05;;
24153;SDS011;12312;53.362;-1.518;2023-03-20T10:50:41;1.70;;;1.60;;
24153;SDS011;12312;53.362;-1.518;2023-03-20T10:56:27;1.83;;;1.70;;
24153;SDS011;12312;53.362;-1.518;2023-03-20T10:59:28;3.28;;;1.60;;
24153;SDS011;12312;53.362;-1.518;2023-03-20T11:02:21;2.25;;;1.30;;
24153;SDS011;12312;53.362;-1.518;2023-03-20T11:05:21;2.97;;;2.38;;
24153;SDS011;12312;53.362;-1.518;2023-03-20T11:08:14;4.38;;;2.50;;
24153;SDS011;12312;53.362;-1.518;2023-03-20T11:10:59;3.13;;;2.80;;
24153;SDS011;12312;53.362;-1.518;2023-03-20T11:13:44;3.42;;;2.65;;
24153;SDS011;12312;53.362;-1.518;2023-03-20T11:16:33;3.60;;;2.92;;
24153;SDS011;12312;53.362;-1.518;2023-03-20T11:19:19;4.93;;;3.50;;
24153;SDS011;12312;53.362;-1.518;2023-03-20T11:22:06;4.45;;;3.28;;
24153;SDS011;12312;53.362;-1.518;2023-03-20T11:25:33;2.97;;;2.67;;
24153;SDS011;12312;53.362;-1.518;2023-03-20T11:28:59;5.13;;;3.63;;
24153;SDS011;12312;53.362;-1.518;2023-03-20T11:31:36;3.75;;;3.33;;
24153;SDS011;12312;53.362;-1.518;2023-03-20T11:34:23;3.63;;;3.00;;
24153;SDS011;12312;53.362;-1.518;2023-03-20T11:37:22;4.30;;;3.33;;
24153;SDS011;12312;53.362;-1.518;2023-03-20T11:45:53;5.45;;;3.75;;
24153;SDS011;12312;53.362;-1.518;2023-03-20T11:48:43;7.00;;;4.72;;
24153;SDS011;12312;53.362;-1.518;2023-03-20T11:51:28;8.32;;;5.13;;
24153;SDS011;12312;53.362;-1.518;2023-03-20T11:54:17;7.55;;;4.85;;
24153;SDS011;12312;53.362;-1.518;2023-03-20T11:57:05;4.00;;;2.80;;
24153;SDS011;12312;53.362;-1.518;2023-03-20T11:59:49;3.15;;;2.85;;
24153;SDS011;12312;53.362;-1.518;2023-03-20T12:02:33;3.40;;;2.97;;
24153;SDS011;12312;53.362;-1.518;2023-03-20T12:11:05;2.85;;;2.33;;
24153;SDS011;12312;53.362;-1.518;2023-03-20T12:14:02;3.55;;;2.30;;
24153;SDS011;12312;53.362;-1.518;2023-03-20T12:16:52;2.75;;;2.33;;
24153;SDS011;12312;53.362;-1.518;2023-03-20T12:19:44;3.22;;;2.50;;
24153;SDS011;12312;53.362;-1.518;2023-03-20T12:22:32;3.63;;;3.33;;
24153;SDS011;12312;53.362;-1.518;2023-03-20T12:25:23;5.18;;;2.95;;
24153;SDS011;12312;53.362;-1.518;2023-03-20T12:28:30;4.22;;;2.75;;
24153;SDS011;12312;53.362;-1.518;2023-03-20T12:31:45;3.17;;;2.60;;
24153;SDS011;12312;53.362;-1.518;2023-03-20T12:34:32;2.88;;;2.38;;
24153;SDS011;12312;53.362;-1.518;2023-03-20T12:37:20;3.70;;;2.45;;
24153;SDS011;12312;53.362;-1.518;2023-03-20T12:40:05;2.60;;;2.03;;
24153;SDS011;12312;53.362;-1.518;2023-03-20T12:43:03;2.42;;;1.50;;
24153;SDS011;12312;53.362;-1.518;2023-03-20T12:46:07;2.03;;;1.80;;
24153;SDS011;12312;53.362;-1.518;2023-03-20T12:49:11;3.38;;;1.58;;
24153;SDS011;12312;53.362;-1.518;2023-03-20T13:07:13;2.30;;;1.17;;
24153;SDS011;12312;53.362;-1.518;2023-03-20T13:10:14;1.52;;;1.30;;
24153;SDS011;12312;53.362;-1.518;2023-03-20T13:33:51;1.23;;;0.70;;
24153;SDS011;12312;53.362;-1.518;2023-03-20T13:46:06;1.95;;;1.10;;
24153;SDS011;12312;53.362;-1.518;2023-03-20T13:48:54;1.20;;;0.98;;
24153;SDS011;12312;53.362;-1.518;2023-03-20T13:54:52;2.70;;;1.10;;
24153;SDS011;12312;53.362;-1.518;2023-03-20T14:03:52;1.83;;;1.02;;
24153;SDS011;12312;53.362;-1.518;2023-03-20T14:09:33;1.08;;;0.82;;
24153;SDS011;12312;53.362;-1.518;2023-03-20T14:12:19;1.48;;;0.93;;
24153;SDS011;12312;53.362;-1.518;2023-03-20T14:15:09;1.92;;;0.90;;
24153;SDS011;12312;53.362;-1.518;2023-03-20T14:17:55;0.85;;;0.70;;
24153;SDS011;12312;53.362;-1.518;2023-03-20T14:20:39;1.10;;;0.80;;
24153;SDS011;12312;53.362;-1.518;2023-03-20T14:23:36;1.05;;;0.50;;
24153;SDS011;12312;53.362;-1.518;2023-03-20T14:26:24;0.45;;;0.45;;
24153;SDS011;12312;53.362;-1.518;2023-03-20T14:35:17;0.93;;;0.50;;
24153;SDS011;12312;53.362;-1.518;2023-03-20T14:41:04;1.20;;;0.50;;
24153;SDS011;12312;53.362;-1.518;2023-03-20T14:44:00;0.52;;;0.47;;
24153;SDS011;12312;53.362;-1.518;2023-03-20T14:46:51;1.80;;;0.60;;
24153;SDS011;12312;53.362;-1.518;2023-03-20T15:04:39;0.82;;;0.50;;
24153;SDS011;12312;53.362;-1.518;2023-03-20T15:07:29;0.57;;;0.50;;
24153;SDS011;12312;53.362;-1.518;2023-03-20T15:10:16;1.13;;;0.50;;
24153;SDS011;12312;53.362;-1.518;2023-03-20T15:13:02;0.70;;;0.50;;
24153;SDS011;12312;53.362;-1.518;2023-03-20T15:15:59;1.20;;;0.60;;
24153;SDS011;12312;53.362;-1.518;2023-03-20T15:18:51;2.25;;;0.60;;
24153;SDS011;12312;53.362;-1.518;2023-03-20T15:21:37;0.47;;;0.43;;
24153;SDS011;12312;53.362;-1.518;2023-03-20T15:24:25;1.67;;;0.65;;
24153;SDS011;12312;53.362;-1.518;2023-03-20T15:27:10;0.80;;;0.40;;
24153;SDS011;12312;53.362;-1.518;2023-03-20T15:29:56;0.88;;;0.50;;
24153;SDS011;12312;53.362;-1.518;2023-03-20T15:32:45;2.38;;;0.80;;
24153;SDS011;12312;53.362;-1.518;2023-03-20T15:35:30;0.88;;;0.45;;
24153;SDS011;12312;53.362;-1.518;2023-03-20T15:38:15;1.48;;;0.85;;
24153;SDS011;12312;53.362;-1.518;2023-03-20T15:41:04;0.98;;;0.47;;
24153;SDS011;12312;53.362;-1.518;2023-03-20T15:43:51;2.15;;;0.50;;
24153;SDS011;12312;53.362;-1.518;2023-03-20T15:46:35;3.30;;;0.88;;
24153;SDS011;12312;53.362;-1.518;2023-03-20T15:49:19;1.25;;;0.50;;
24153;SDS011;12312;53.362;-1.518;2023-03-20T15:52:06;1.83;;;0.50;;
24153;SDS011;12312;53.362;-1.518;2023-03-20T15:54:57;0.68;;;0.50;;
24153;SDS011;12312;53.362;-1.518;2023-03-20T15:57:45;2.38;;;0.73;;
24153;SDS011;12312;53.362;-1.518;2023-03-20T16:03:31;2.03;;;1.00;;
24153;SDS011;12312;53.362;-1.518;2023-03-20T16:06:21;1.55;;;1.00;;
24153;SDS011;12312;53.362;-1.518;2023-03-20T16:09:07;2.58;;;1.30;;
24153;SDS011;12312;53.362;-1.518;2023-03-20T16:11:58;2.80;;;0.75;;
24153;SDS011;12312;53.362;-1.518;2023-03-20T16:14:45;1.40;;;0.63;;
24153;SDS011;12312;53.362;-1.518;2023-03-20T16:17:33;1.80;;;0.90;;
24153;SDS011;12312;53.362;-1.518;2023-03-20T16:20:18;2.80;;;1.27;;
24153;SDS011;12312;53.362;-1.518;2023-03-20T16:23:05;3.42;;;1.33;;
24153;SDS011;12312;53.362;-1.518;2023-03-20T16:25:52;2.33;;;1.02;;
24153;SDS011;12312;53.362;-1.518;2023-03-20T16:28:41;1.77;;;0.80;;
24153;SDS011;12312;53.362;-1.518;2023-03-20T16:31:33;5.68;;;0.90;;
24153;SDS011;12312;53.362;-1.518;2023-03-20T16:34:23;1.10;;;0.65;;
24153;SDS011;12312;53.362;-1.518;2023-03-20T16:37:23;4.07;;;1.30;;
24153;SDS011;12312;53.362;-1.518;2023-03-20T16:40:14;3.75;;;1.15;;
24153;SDS011;12312;53.362;-1.518;2023-03-20T16:43:04;3.10;;;1.30;;
24153;SDS011;12312;53.362;-1.518;2023-03-20T16:45:52;2.45;;;0.98;;
24153;SDS011;12312;53.362;-1.518;2023-03-20T16:48:39;3.80;;;1.50;;
24153;SDS011;12312;53.362;-1.518;2023-03-20T16:51:26;3.60;;;1.25;;
24153;SDS011;12312;53.362;-1.518;2023-03-20T16:54:17;3.45;;;1.67;;
24153;SDS011;12312;53.362;-1.518;2023-03-20T16:57:07;4.80;;;1.63;;
24153;SDS011;12312;53.362;-1.518;2023-03-20T16:59:57;3.10;;;1.40;;
24153;SDS011;12312;53.362;-1.518;2023-03-20T17:02:51;3.28;;;1.10;;
24153;SDS011;12312;53.362;-1.518;2023-03-20T17:05:56;3.00;;;0.95;;
24153;SDS011;12312;53.362;-1.518;2023-03-20T17:08:44;2.50;;;1.02;;
24153;SDS011;12312;53.362;-1.518;2023-03-20T17:11:34;2.85;;;1.30;;
24153;SDS011;12312;53.362;-1.518;2023-03-20T17:14:19;2.60;;;1.27;;
24153;SDS011;12312;53.362;-1.518;2023-03-20T17:17:07;2.42;;;1.42;;
24153;SDS011;12312;53.362;-1.518;2023-03-20T17:19:55;2.97;;;1.40;;
24153;SDS011;12312;53.362;-1.518;2023-03-20T17:22:40;4.63;;;1.52;;
24153;SDS011;12312;53.362;-1.518;2023-03-20T17:25:24;2.67;;;1.13;;
24153;SDS011;12312;53.362;-1.518;2023-03-20T17:28:13;4.68;;;1.90;;
24153;SDS011;12312;53.362;-1.518;2023-03-20T17:31:02;2.28;;;1.35;;
24153;SDS011;12312;53.362;-1.518;2023-03-20T17:33:48;3.63;;;1.65;;
24153;SDS011;12312;53.362;-1.518;2023-03-20T17:36:33;2.45;;;1.50;;
24153;SDS011;12312;53.362;-1.518;2023-03-20T17:39:18;3.35;;;1.67;;
24153;SDS011;12312;53.362;-1.518;2023-03-20T17:42:08;4.78;;;1.67;;
24153;SDS011;12312;53.362;-1.518;2023-03-20T17:45:00;2.20;;;1.30;;
24153;SDS011;12312;53.362;-1.518;2023-03-20T17:47:48;3.45;;;1.45;;
24153;SDS011;12312;53.362;-1.518;2023-03-20T17:50:34;3.13;;;1.50;;
24153;SDS011;12312;53.362;-1.518;2023-03-20T17:53:19;2.13;;;1.20;;
24153;SDS011;12312;53.362;-1.518;2023-03-20T17:56:11;3.70;;;1.45;;
24153;SDS011;12312;53.362;-1.518;2023-03-20T17:58:59;1.95;;;1.20;;
24153;SDS011;12312;53.362;-1.518;2023-03-20T18:01:43;2.83;;;1.40;;
24153;SDS011;12312;53.362;-1.518;2023-03-20T18:04:27;2.58;;;1.70;;
24153;SDS011;12312;53.362;-1.518;2023-03-20T18:07:11;2.60;;;1.80;;
24153;SDS011;12312;53.362;-1.518;2023-03-20T18:09:56;2.28;;;1.65;;
24153;SDS011;12312;53.362;-1.518;2023-03-20T18:12:41;3.28;;;1.60;;
24153;SDS011;12312;53.362;-1.518;2023-03-20T18:15:25;2.78;;;2.03;;
24153;SDS011;12312;53.362;-1.518;2023-03-20T18:18:09;2.83;;;2.00;;
24153;SDS011;12312;53.362;-1.518;2023-03-20T18:20:54;3.92;;;2.03;;
24153;SDS011;12312;53.362;-1.518;2023-03-20T18:26:24;96.60;;;6.85;;
24153;SDS011;12312;53.362;-1.518;2023-03-20T18:29:10;4.53;;;2.95;;
24153;SDS011;12312;53.362;-1.518;2023-03-20T18:31:54;6.13;;;3.08;;
24153;SDS011;12312;53.362;-1.518;2023-03-20T18:34:38;4.50;;;3.67;;
24153;SDS011;12312;53.362;-1.518;2023-03-20T18:37:23;4.60;;;3.40;;
24153;SDS011;12312;53.362;-1.518;2023-03-20T18:40:27;5.07;;;3.78;;
24153;SDS011;12312;53.362;-1.518;2023-03-20T18:43:13;4.88;;;3.38;;
24153;SDS011;12312;53.362;-1.518;2023-03-20T18:45:57;6.05;;;3.85;;
24153;SDS011;12312;53.362;-1.518;2023-03-20T18:48:41;5.05;;;3.80;;
24153;SDS011;12312;53.362;-1.518;2023-03-20T18:51:25;4.80;;;4.25;;
24153;SDS011;12312;53.362;-1.518;2023-03-20T18:54:09;9.13;;;6.10;;
24153;SDS011;12312;53.362;-1.518;2023-03-20T18:56:53;11.13;;;7.22;;
24153;SDS011;12312;53.362;-1.518;2023-03-20T18:59:42;12.23;;;8.07;;
24153;SDS011;12312;53.362;-1.518;2023-03-20T19:02:26;8.77;;;6.47;;
24153;SDS011;12312;53.362;-1.518;2023-03-20T19:05:10;8.48;;;6.55;;
24153;SDS011;12312;53.362;-1.518;2023-03-20T19:07:55;14.60;;;8.70;;
24153;SDS011;12312;53.362;-1.518;2023-03-20T19:10:41;10.13;;;8.35;;
24153;SDS011;12312;53.362;-1.518;2023-03-20T19:13:26;12.43;;;9.87;;
24153;SDS011;12312;53.362;-1.518;2023-03-20T19:16:27;12.98;;;9.85;;
24153;SDS011;12312;53.362;-1.518;2023-03-20T19:22:01;22.23;;;14.02;;
24153;SDS011;12312;53.362;-1.518;2023-03-20T19:24:47;21.13;;;13.55;;
24153;SDS011;12312;53.362;-1.518;2023-03-20T19:27:31;45.63;;;24.50;;
24153;SDS011;12312;53.362;-1.518;2023-03-20T19:30:20;22.83;;;15.95;;
24153;SDS011;12312;53.362;-1.518;2023-03-20T19:33:10;26.13;;;17.80;;
24153;SDS011;12312;53.362;-1.518;2023-03-20T19:35:54;24.00;;;16.75;;